Prince Albert Glass Field
CYPA : now visible

Airfield :











YOU CAN JOIN US ON...

 
LOGIN :

Register | Disclaimer

   EN    FR    IT 

 









Legend :    VFR   Marginal VFR   IFR   Intensive IFR   Very Intensive IFR
Visi :
Ceiling :
>= 8 km
>= 3000ft
5 to 8 km
1000 to 3000 ft
1500m to 5 km
500 to 1000 ft
800 to 1500m
200 to 500 ft
< 800m
< 200 ft
Symbols :   Thunderstorms  Fog  Heavy snow  Heavy precipitations  Wind > 20 kt






- Airport Elevation : 1405 ft
- IATA code : YPA


CYPA - Prince Albert Glass Field

CURRENT METAR :
  • 211500Z 07014KT 5SM -RA BR OVC006 05/05 A2985 RMK SC8 SLP126

EXPIRED METARs :
  • 211405Z 07013KT 6SM -RA BR OVC005 05/05 A2985 RMK SC8 SLP128
  • 211355Z 06013KT 3SM RA BR OVC003 05/05 A2985 RMK ST8 SLP126
  • 211300Z 06012KT 5SM -SHRA BR OVC004 05/05 A2986 RMK ST8 CVCTV CLD EMBD SLP129
  • 211248Z 06011G18KT 3SM -SHRA BR OVC005 05/05 A2986 RMK ST8 CVCTV CLD EMBD SLP129
  • 211223Z 06013G19KT 3SM -SHRA BR OVC006 05/05 A2985 RMK ST8 CVCTV CLD EMBD SLP127
  • 211200Z 05012G17KT 5SM SHRA BR OVC006 06/05 A2985 RMK ST8 CVCTV CLD EMBD SLP126
  • 211123Z 07011KT 8SM SHRA OVC007 06/05 A2985 RMK ST8 CVCTV CLD EMBD SLP126
  • 211100Z 08014KT 12SM -SHRA OVC008 06/05 A2985 RMK ST8 CVCTV CLD EMBD SLP125
  • 211033Z 07010G16KT 15SM -SHRA OVC008 06/05 A2985 RMK ST8 CVCTV CLD EMBD SLP125

TAF AMD TAF CYPA
Valid from the 21 at 13:00 until the 22 at 01:00 UTC


211314Z 2113/2201 06012KT 5SM -SHRA BR OVC004
TEMPO 2113/2117 P6SM -SHRA OVC006
FM211700 06012KT P6SM -SHRA SCT006 OVC020
TEMPO 2117/2121 5SM -SHRA BR BKN006 OVC020
FM212100 06012G22KT P6SM OVC030
TEMPO 2121/2201 P6SM -SHRA OVC020 RMK NXT FCST BY 211900Z
CZWG FIR / North America



MET'MAP, your aeronautical weather chart ! - Copyright ORBIFLY December 2007 - Disclaimer

ORBIFLY MET'MAP TEAM :

Programming & Development : Alexandra Zaïnal
Original concept : Baudouin d'Aumeries
Technical & hardware support : Manuel Goepfert
Assistance : Marc-Olivier Méhu




SOURCES & CREDITS :

   NOAA       Earth
Advisory